sensor_id;sensor_type;location;lat;lon;timestamp;P1;durP1;ratioP1;P2;durP2;ratioP2
3207;SDS011;1616;52.394;9.756;2024-03-25T00:00:16;3.87;;;1.50;;
3207;SDS011;1616;52.394;9.756;2024-03-25T00:02:44;3.43;;;1.40;;
3207;SDS011;1616;52.394;9.756;2024-03-25T00:05:11;6.40;;;1.30;;
3207;SDS011;1616;52.394;9.756;2024-03-25T00:07:36;3.27;;;1.23;;
3207;SDS011;1616;52.394;9.756;2024-03-25T00:10:03;7.10;;;2.53;;
3207;SDS011;1616;52.394;9.756;2024-03-25T00:12:31;6.60;;;1.43;;
3207;SDS011;1616;52.394;9.756;2024-03-25T00:14:57;2.20;;;1.40;;
3207;SDS011;1616;52.394;9.756;2024-03-25T00:17:23;1.63;;;1.40;;
3207;SDS011;1616;52.394;9.756;2024-03-25T00:19:48;4.40;;;1.30;;
3207;SDS011;1616;52.394;9.756;2024-03-25T00:22:17;8.10;;;2.20;;
3207;SDS011;1616;52.394;9.756;2024-03-25T00:24:45;5.67;;;1.20;;
3207;SDS011;1616;52.394;9.756;2024-03-25T00:27:15;1.77;;;1.43;;
3207;SDS011;1616;52.394;9.756;2024-03-25T00:29:41;5.00;;;1.60;;
3207;SDS011;1616;52.394;9.756;2024-03-25T00:32:06;3.43;;;1.60;;
3207;SDS011;1616;52.394;9.756;2024-03-25T00:34:33;5.73;;;1.20;;
3207;SDS011;1616;52.394;9.756;2024-03-25T00:36:59;5.53;;;1.30;;
3207;SDS011;1616;52.394;9.756;2024-03-25T00:39:26;2.53;;;1.20;;
3207;SDS011;1616;52.394;9.756;2024-03-25T00:41:53;4.30;;;1.43;;
3207;SDS011;1616;52.394;9.756;2024-03-25T00:44:19;2.20;;;1.40;;
3207;SDS011;1616;52.394;9.756;2024-03-25T00:46:45;4.60;;;1.30;;
3207;SDS011;1616;52.394;9.756;2024-03-25T00:49:11;5.80;;;1.73;;
3207;SDS011;1616;52.394;9.756;2024-03-25T00:51:38;2.57;;;1.63;;
3207;SDS011;1616;52.394;9.756;2024-03-25T00:54:04;2.33;;;1.80;;
3207;SDS011;1616;52.394;9.756;2024-03-25T00:56:30;3.30;;;1.20;;
3207;SDS011;1616;52.394;9.756;2024-03-25T00:58:56;3.60;;;2.07;;
3207;SDS011;1616;52.394;9.756;2024-03-25T01:01:23;2.93;;;1.50;;
3207;SDS011;1616;52.394;9.756;2024-03-25T01:03:50;2.10;;;1.60;;
3207;SDS011;1616;52.394;9.756;2024-03-25T01:06:16;3.50;;;1.60;;
3207;SDS011;1616;52.394;9.756;2024-03-25T01:08:41;2.40;;;1.60;;
3207;SDS011;1616;52.394;9.756;2024-03-25T01:11:08;9.07;;;2.50;;
3207;SDS011;1616;52.394;9.756;2024-03-25T01:13:34;8.53;;;1.90;;
3207;SDS011;1616;52.394;9.756;2024-03-25T01:15:59;8.00;;;2.27;;
3207;SDS011;1616;52.394;9.756;2024-03-25T01:18:25;3.17;;;1.97;;
3207;SDS011;1616;52.394;9.756;2024-03-25T01:20:50;4.43;;;1.93;;
3207;SDS011;1616;52.394;9.756;2024-03-25T01:23:16;14.47;;;2.70;;
3207;SDS011;1616;52.394;9.756;2024-03-25T01:25:41;7.20;;;2.53;;
3207;SDS011;1616;52.394;9.756;2024-03-25T01:28:07;6.73;;;1.93;;
3207;SDS011;1616;52.394;9.756;2024-03-25T01:30:33;2.50;;;1.50;;
3207;SDS011;1616;52.394;9.756;2024-03-25T01:33:01;6.90;;;1.77;;
3207;SDS011;1616;52.394;9.756;2024-03-25T01:35:27;4.27;;;1.60;;
3207;SDS011;1616;52.394;9.756;2024-03-25T01:37:52;7.10;;;1.73;;
3207;SDS011;1616;52.394;9.756;2024-03-25T01:40:20;15.00;;;1.90;;
3207;SDS011;1616;52.394;9.756;2024-03-25T01:45:41;11.33;;;1.70;;
3207;SDS011;1616;52.394;9.756;2024-03-25T01:48:08;5.37;;;1.83;;
3207;SDS011;1616;52.394;9.756;2024-03-25T01:50:37;3.47;;;1.60;;
3207;SDS011;1616;52.394;9.756;2024-03-25T01:53:06;14.83;;;2.57;;
3207;SDS011;1616;52.394;9.756;2024-03-25T01:55:32;2.80;;;1.60;;
3207;SDS011;1616;52.394;9.756;2024-03-25T01:58:01;6.80;;;2.00;;
3207;SDS011;1616;52.394;9.756;2024-03-25T02:00:27;5.40;;;1.70;;
3207;SDS011;1616;52.394;9.756;2024-03-25T02:02:53;2.43;;;1.70;;
3207;SDS011;1616;52.394;9.756;2024-03-25T02:05:20;5.53;;;1.80;;
3207;SDS011;1616;52.394;9.756;2024-03-25T02:07:46;5.90;;;1.83;;
3207;SDS011;1616;52.394;9.756;2024-03-25T02:10:12;2.20;;;1.63;;
3207;SDS011;1616;52.394;9.756;2024-03-25T02:12:44;4.70;;;2.03;;
3207;SDS011;1616;52.394;9.756;2024-03-25T02:15:11;5.97;;;1.70;;
3207;SDS011;1616;52.394;9.756;2024-03-25T02:17:39;3.67;;;1.83;;
3207;SDS011;1616;52.394;9.756;2024-03-25T02:20:05;3.17;;;1.97;;
3207;SDS011;1616;52.394;9.756;2024-03-25T02:22:33;8.30;;;1.90;;
3207;SDS011;1616;52.394;9.756;2024-03-25T02:25:06;2.87;;;1.60;;
3207;SDS011;1616;52.394;9.756;2024-03-25T02:27:34;6.60;;;1.87;;
3207;SDS011;1616;52.394;9.756;2024-03-25T02:30:10;5.50;;;2.10;;
3207;SDS011;1616;52.394;9.756;2024-03-25T02:32:39;8.43;;;1.70;;
3207;SDS011;1616;52.394;9.756;2024-03-25T02:35:07;3.83;;;1.60;;
3207;SDS011;1616;52.394;9.756;2024-03-25T02:37:35;5.87;;;2.10;;
3207;SDS011;1616;52.394;9.756;2024-03-25T02:40:02;6.23;;;1.47;;
3207;SDS011;1616;52.394;9.756;2024-03-25T02:42:30;9.50;;;1.50;;
3207;SDS011;1616;52.394;9.756;2024-03-25T02:44:57;4.87;;;1.67;;
3207;SDS011;1616;52.394;9.756;2024-03-25T02:47:24;5.63;;;1.97;;
3207;SDS011;1616;52.394;9.756;2024-03-25T02:49:50;4.23;;;1.60;;
3207;SDS011;1616;52.394;9.756;2024-03-25T02:52:16;3.93;;;1.67;;
3207;SDS011;1616;52.394;9.756;2024-03-25T02:54:42;7.40;;;1.57;;
3207;SDS011;1616;52.394;9.756;2024-03-25T02:57:08;6.07;;;2.07;;
3207;SDS011;1616;52.394;9.756;2024-03-25T02:59:34;3.17;;;1.60;;
3207;SDS011;1616;52.394;9.756;2024-03-25T03:01:59;4.60;;;1.40;;
3207;SDS011;1616;52.394;9.756;2024-03-25T03:04:25;4.83;;;3.33;;
3207;SDS011;1616;52.394;9.756;2024-03-25T03:06:50;5.20;;;1.70;;
3207;SDS011;1616;52.394;9.756;2024-03-25T03:09:16;2.47;;;1.83;;
3207;SDS011;1616;52.394;9.756;2024-03-25T03:11:41;11.93;;;2.23;;
3207;SDS011;1616;52.394;9.756;2024-03-25T03:14:07;12.30;;;1.73;;
3207;SDS011;1616;52.394;9.756;2024-03-25T03:16:35;6.73;;;1.63;;
3207;SDS011;1616;52.394;9.756;2024-03-25T03:19:00;3.83;;;1.60;;
3207;SDS011;1616;52.394;9.756;2024-03-25T03:21:26;3.40;;;1.40;;
3207;SDS011;1616;52.394;9.756;2024-03-25T03:23:52;2.13;;;1.93;;
3207;SDS011;1616;52.394;9.756;2024-03-25T03:26:18;4.07;;;1.20;;
3207;SDS011;1616;52.394;9.756;2024-03-25T03:28:44;9.30;;;1.90;;
3207;SDS011;1616;52.394;9.756;2024-03-25T03:31:09;7.23;;;1.63;;
3207;SDS011;1616;52.394;9.756;2024-03-25T03:33:35;3.10;;;1.50;;
3207;SDS011;1616;52.394;9.756;2024-03-25T03:36:01;6.30;;;1.80;;
3207;SDS011;1616;52.394;9.756;2024-03-25T03:38:26;3.80;;;1.37;;
3207;SDS011;1616;52.394;9.756;2024-03-25T03:41:11;2.87;;;1.50;;
3207;SDS011;1616;52.394;9.756;2024-03-25T03:43:37;12.63;;;2.30;;
3207;SDS011;1616;52.394;9.756;2024-03-25T03:46:02;8.77;;;2.40;;
3207;SDS011;1616;52.394;9.756;2024-03-25T03:48:30;4.13;;;1.57;;
3207;SDS011;1616;52.394;9.756;2024-03-25T03:50:55;5.73;;;2.00;;
3207;SDS011;1616;52.394;9.756;2024-03-25T03:53:22;6.20;;;2.00;;
3207;SDS011;1616;52.394;9.756;2024-03-25T03:55:54;4.40;;;1.50;;
3207;SDS011;1616;52.394;9.756;2024-03-25T03:58:20;3.73;;;1.47;;
3207;SDS011;1616;52.394;9.756;2024-03-25T04:00:47;3.80;;;1.67;;
3207;SDS011;1616;52.394;9.756;2024-03-25T04:03:13;4.97;;;2.17;;
3207;SDS011;1616;52.394;9.756;2024-03-25T04:05:38;6.53;;;1.40;;
3207;SDS011;1616;52.394;9.756;2024-03-25T04:08:04;11.73;;;1.60;;
3207;SDS011;1616;52.394;9.756;2024-03-25T04:10:31;6.50;;;1.90;;
3207;SDS011;1616;52.394;9.756;2024-03-25T04:12:58;3.97;;;1.50;;
3207;SDS011;1616;52.394;9.756;2024-03-25T04:15:24;8.53;;;2.00;;
3207;SDS011;1616;52.394;9.756;2024-03-25T04:17:49;7.40;;;1.67;;
3207;SDS011;1616;52.394;9.756;2024-03-25T04:20:15;4.47;;;2.07;;
3207;SDS011;1616;52.394;9.756;2024-03-25T04:22:41;5.90;;;1.50;;
3207;SDS011;1616;52.394;9.756;2024-03-25T04:25:09;7.00;;;2.73;;
3207;SDS011;1616;52.394;9.756;2024-03-25T04:27:39;3.27;;;1.30;;
3207;SDS011;1616;52.394;9.756;2024-03-25T04:30:06;7.13;;;1.40;;
3207;SDS011;1616;52.394;9.756;2024-03-25T04:32:34;4.80;;;1.73;;
3207;SDS011;1616;52.394;9.756;2024-03-25T04:35:00;8.57;;;1.97;;
3207;SDS011;1616;52.394;9.756;2024-03-25T04:37:26;7.30;;;1.87;;
3207;SDS011;1616;52.394;9.756;2024-03-25T04:39:55;10.17;;;1.53;;
3207;SDS011;1616;52.394;9.756;2024-03-25T04:42:23;2.23;;;1.50;;
3207;SDS011;1616;52.394;9.756;2024-03-25T04:44:51;13.10;;;1.80;;
3207;SDS011;1616;52.394;9.756;2024-03-25T04:47:18;6.53;;;1.80;;
3207;SDS011;1616;52.394;9.756;2024-03-25T04:49:44;6.00;;;2.27;;
3207;SDS011;1616;52.394;9.756;2024-03-25T04:52:11;17.33;;;4.07;;
3207;SDS011;1616;52.394;9.756;2024-03-25T04:54:48;6.40;;;2.70;;
3207;SDS011;1616;52.394;9.756;2024-03-25T04:57:14;9.30;;;2.00;;
3207;SDS011;1616;52.394;9.756;2024-03-25T04:59:40;6.00;;;1.67;;
3207;SDS011;1616;52.394;9.756;2024-03-25T05:02:05;6.70;;;2.37;;
3207;SDS011;1616;52.394;9.756;2024-03-25T05:04:31;17.87;;;2.10;;
3207;SDS011;1616;52.394;9.756;2024-03-25T05:06:57;6.00;;;1.90;;
3207;SDS011;1616;52.394;9.756;2024-03-25T05:09:23;5.17;;;1.70;;
3207;SDS011;1616;52.394;9.756;2024-03-25T05:11:48;6.70;;;1.67;;
3207;SDS011;1616;52.394;9.756;2024-03-25T05:14:16;6.90;;;1.70;;
3207;SDS011;1616;52.394;9.756;2024-03-25T05:16:42;7.63;;;2.50;;
3207;SDS011;1616;52.394;9.756;2024-03-25T05:19:07;18.97;;;2.43;;
3207;SDS011;1616;52.394;9.756;2024-03-25T05:21:33;10.90;;;2.63;;
3207;SDS011;1616;52.394;9.756;2024-03-25T05:23:59;11.90;;;2.27;;
3207;SDS011;1616;52.394;9.756;2024-03-25T05:26:25;13.53;;;1.90;;
3207;SDS011;1616;52.394;9.756;2024-03-25T05:28:55;9.13;;;1.83;;
3207;SDS011;1616;52.394;9.756;2024-03-25T05:31:21;9.60;;;2.60;;
3207;SDS011;1616;52.394;9.756;2024-03-25T05:33:47;14.23;;;2.13;;
3207;SDS011;1616;52.394;9.756;2024-03-25T05:36:13;17.43;;;1.80;;
3207;SDS011;1616;52.394;9.756;2024-03-25T05:38:39;11.10;;;4.07;;
3207;SDS011;1616;52.394;9.756;2024-03-25T05:41:05;10.63;;;2.07;;
3207;SDS011;1616;52.394;9.756;2024-03-25T05:43:30;11.70;;;2.17;;
3207;SDS011;1616;52.394;9.756;2024-03-25T05:45:57;7.13;;;2.30;;
3207;SDS011;1616;52.394;9.756;2024-03-25T05:48:25;8.50;;;2.23;;
3207;SDS011;1616;52.394;9.756;2024-03-25T05:53:27;6.87;;;2.47;;
3207;SDS011;1616;52.394;9.756;2024-03-25T05:55:53;17.37;;;2.97;;
3207;SDS011;1616;52.394;9.756;2024-03-25T05:58:21;12.73;;;2.10;;
3207;SDS011;1616;52.394;9.756;2024-03-25T06:00:49;20.57;;;2.20;;
3207;SDS011;1616;52.394;9.756;2024-03-25T06:03:15;9.40;;;2.27;;
3207;SDS011;1616;52.394;9.756;2024-03-25T06:05:41;12.27;;;2.10;;
3207;SDS011;1616;52.394;9.756;2024-03-25T06:08:07;12.13;;;2.27;;
3207;SDS011;1616;52.394;9.756;2024-03-25T06:10:36;4.80;;;1.70;;
3207;SDS011;1616;52.394;9.756;2024-03-25T06:13:03;8.43;;;2.10;;
3207;SDS011;1616;52.394;9.756;2024-03-25T06:15:30;10.07;;;2.30;;
3207;SDS011;1616;52.394;9.756;2024-03-25T06:17:56;6.67;;;2.10;;
3207;SDS011;1616;52.394;9.756;2024-03-25T06:20:21;7.60;;;2.27;;
3207;SDS011;1616;52.394;9.756;2024-03-25T06:22:47;13.87;;;2.57;;
3207;SDS011;1616;52.394;9.756;2024-03-25T06:25:12;7.13;;;1.93;;
3207;SDS011;1616;52.394;9.756;2024-03-25T06:27:38;10.77;;;1.93;;
3207;SDS011;1616;52.394;9.756;2024-03-25T06:30:05;5.90;;;1.53;;
3207;SDS011;1616;52.394;9.756;2024-03-25T06:32:50;5.97;;;1.93;;
3207;SDS011;1616;52.394;9.756;2024-03-25T06:35:35;10.97;;;1.70;;
3207;SDS011;1616;52.394;9.756;2024-03-25T06:38:01;4.30;;;1.80;;
3207;SDS011;1616;52.394;9.756;2024-03-25T06:40:28;8.27;;;1.80;;
3207;SDS011;1616;52.394;9.756;2024-03-25T06:42:53;6.00;;;2.60;;
3207;SDS011;1616;52.394;9.756;2024-03-25T06:45:19;11.20;;;1.77;;
3207;SDS011;1616;52.394;9.756;2024-03-25T06:47:44;19.77;;;2.40;;
3207;SDS011;1616;52.394;9.756;2024-03-25T06:50:10;12.03;;;1.90;;
3207;SDS011;1616;52.394;9.756;2024-03-25T06:52:35;9.17;;;1.60;;
3207;SDS011;1616;52.394;9.756;2024-03-25T06:55:01;14.00;;;2.10;;
3207;SDS011;1616;52.394;9.756;2024-03-25T06:57:27;4.27;;;1.73;;
3207;SDS011;1616;52.394;9.756;2024-03-25T06:59:53;14.10;;;2.50;;
3207;SDS011;1616;52.394;9.756;2024-03-25T07:02:18;22.10;;;2.67;;
3207;SDS011;1616;52.394;9.756;2024-03-25T07:04:44;6.50;;;1.83;;
3207;SDS011;1616;52.394;9.756;2024-03-25T07:07:09;6.93;;;2.00;;
3207;SDS011;1616;52.394;9.756;2024-03-25T07:09:35;12.43;;;1.87;;
3207;SDS011;1616;52.394;9.756;2024-03-25T07:12:03;13.53;;;2.63;;
3207;SDS011;1616;52.394;9.756;2024-03-25T07:14:29;12.37;;;2.10;;
3207;SDS011;1616;52.394;9.756;2024-03-25T07:16:55;4.37;;;1.97;;
3207;SDS011;1616;52.394;9.756;2024-03-25T07:19:21;8.97;;;2.37;;
3207;SDS011;1616;52.394;9.756;2024-03-25T07:21:46;8.90;;;1.87;;
3207;SDS011;1616;52.394;9.756;2024-03-25T07:24:12;10.20;;;2.00;;
3207;SDS011;1616;52.394;9.756;2024-03-25T07:26:37;7.93;;;2.00;;
3207;SDS011;1616;52.394;9.756;2024-03-25T07:29:03;3.80;;;1.60;;
3207;SDS011;1616;52.394;9.756;2024-03-25T07:31:28;6.20;;;1.97;;
3207;SDS011;1616;52.394;9.756;2024-03-25T07:33:54;9.47;;;2.43;;
3207;SDS011;1616;52.394;9.756;2024-03-25T07:36:20;7.90;;;1.70;;
3207;SDS011;1616;52.394;9.756;2024-03-25T07:38:46;5.57;;;2.13;;
3207;SDS011;1616;52.394;9.756;2024-03-25T07:41:11;7.83;;;2.00;;
3207;SDS011;1616;52.394;9.756;2024-03-25T07:43:37;6.60;;;2.10;;
3207;SDS011;1616;52.394;9.756;2024-03-25T07:46:03;8.30;;;2.13;;
3207;SDS011;1616;52.394;9.756;2024-03-25T07:48:30;8.13;;;1.87;;
3207;SDS011;1616;52.394;9.756;2024-03-25T07:50:55;3.30;;;2.00;;
3207;SDS011;1616;52.394;9.756;2024-03-25T07:53:21;7.53;;;1.90;;
3207;SDS011;1616;52.394;9.756;2024-03-25T07:55:46;14.87;;;2.10;;
3207;SDS011;1616;52.394;9.756;2024-03-25T07:58:12;14.80;;;1.90;;
3207;SDS011;1616;52.394;9.756;2024-03-25T08:00:38;9.50;;;1.93;;
3207;SDS011;1616;52.394;9.756;2024-03-25T08:03:04;14.53;;;2.50;;
3207;SDS011;1616;52.394;9.756;2024-03-25T08:05:30;13.47;;;1.90;;
3207;SDS011;1616;52.394;9.756;2024-03-25T08:07:55;6.73;;;1.80;;
3207;SDS011;1616;52.394;9.756;2024-03-25T08:10:21;9.80;;;1.60;;
3207;SDS011;1616;52.394;9.756;2024-03-25T08:12:47;15.03;;;2.20;;
3207;SDS011;1616;52.394;9.756;2024-03-25T08:15:13;7.07;;;2.23;;
3207;SDS011;1616;52.394;9.756;2024-03-25T08:17:39;6.13;;;1.70;;
3207;SDS011;1616;52.394;9.756;2024-03-25T08:20:05;2.73;;;1.93;;
3207;SDS011;1616;52.394;9.756;2024-03-25T08:22:31;8.90;;;2.30;;
3207;SDS011;1616;52.394;9.756;2024-03-25T08:24:56;16.13;;;2.37;;
3207;SDS011;1616;52.394;9.756;2024-03-25T08:27:22;6.10;;;1.63;;
3207;SDS011;1616;52.394;9.756;2024-03-25T08:29:47;8.10;;;1.70;;
3207;SDS011;1616;52.394;9.756;2024-03-25T08:32:16;7.77;;;1.60;;
3207;SDS011;1616;52.394;9.756;2024-03-25T08:34:42;15.90;;;1.50;;
3207;SDS011;1616;52.394;9.756;2024-03-25T08:37:07;15.87;;;1.67;;
3207;SDS011;1616;52.394;9.756;2024-03-25T08:39:33;8.23;;;2.17;;
3207;SDS011;1616;52.394;9.756;2024-03-25T08:41:58;8.27;;;1.80;;
3207;SDS011;1616;52.394;9.756;2024-03-25T08:44:24;4.37;;;1.47;;
3207;SDS011;1616;52.394;9.756;2024-03-25T08:46:49;3.63;;;1.40;;
3207;SDS011;1616;52.394;9.756;2024-03-25T08:49:15;7.77;;;1.50;;
3207;SDS011;1616;52.394;9.756;2024-03-25T08:51:41;8.30;;;1.90;;
3207;SDS011;1616;52.394;9.756;2024-03-25T08:54:07;25.97;;;12.97;;
3207;SDS011;1616;52.394;9.756;2024-03-25T08:56:34;33.33;;;12.33;;
3207;SDS011;1616;52.394;9.756;2024-03-25T08:58:59;8.83;;;4.80;;
3207;SDS011;1616;52.394;9.756;2024-03-25T09:01:26;8.70;;;6.63;;
3207;SDS011;1616;52.394;9.756;2024-03-25T09:03:53;13.93;;;4.63;;
3207;SDS011;1616;52.394;9.756;2024-03-25T09:06:18;16.50;;;6.63;;
3207;SDS011;1616;52.394;9.756;2024-03-25T09:08:44;11.70;;;3.80;;
3207;SDS011;1616;52.394;9.756;2024-03-25T09:11:28;12.73;;;2.00;;
3207;SDS011;1616;52.394;9.756;2024-03-25T09:13:54;9.70;;;6.87;;
3207;SDS011;1616;52.394;9.756;2024-03-25T09:16:20;11.30;;;3.47;;
3207;SDS011;1616;52.394;9.756;2024-03-25T09:18:46;8.60;;;1.87;;
3207;SDS011;1616;52.394;9.756;2024-03-25T09:21:11;8.27;;;1.50;;
3207;SDS011;1616;52.394;9.756;2024-03-25T09:23:38;6.73;;;1.63;;
3207;SDS011;1616;52.394;9.756;2024-03-25T09:26:04;18.23;;;2.03;;
3207;SDS011;1616;52.394;9.756;2024-03-25T09:28:29;7.10;;;1.50;;
3207;SDS011;1616;52.394;9.756;2024-03-25T09:30:56;10.37;;;1.83;;
3207;SDS011;1616;52.394;9.756;2024-03-25T09:33:21;7.27;;;3.37;;
3207;SDS011;1616;52.394;9.756;2024-03-25T09:35:48;6.10;;;1.63;;
3207;SDS011;1616;52.394;9.756;2024-03-25T09:38:15;5.27;;;1.60;;
3207;SDS011;1616;52.394;9.756;2024-03-25T09:40:41;5.53;;;1.43;;
3207;SDS011;1616;52.394;9.756;2024-03-25T09:43:11;6.60;;;1.60;;
3207;SDS011;1616;52.394;9.756;2024-03-25T09:45:43;8.50;;;1.50;;
3207;SDS011;1616;52.394;9.756;2024-03-25T09:48:13;3.40;;;1.13;;
3207;SDS011;1616;52.394;9.756;2024-03-25T09:50:44;5.93;;;1.20;;
3207;SDS011;1616;52.394;9.756;2024-03-25T09:53:10;4.13;;;1.10;;
3207;SDS011;1616;52.394;9.756;2024-03-25T09:55:36;5.77;;;1.20;;
3207;SDS011;1616;52.394;9.756;2024-03-25T09:58:05;4.90;;;1.03;;
3207;SDS011;1616;52.394;9.756;2024-03-25T10:00:31;3.27;;;1.20;;
3207;SDS011;1616;52.394;9.756;2024-03-25T10:02:57;5.10;;;1.30;;
3207;SDS011;1616;52.394;9.756;2024-03-25T10:05:22;7.30;;;1.47;;
3207;SDS011;1616;52.394;9.756;2024-03-25T10:07:48;6.50;;;1.37;;
3207;SDS011;1616;52.394;9.756;2024-03-25T10:10:18;6.47;;;1.33;;
3207;SDS011;1616;52.394;9.756;2024-03-25T10:12:47;5.33;;;1.53;;
3207;SDS011;1616;52.394;9.756;2024-03-25T10:15:16;4.23;;;1.20;;
3207;SDS011;1616;52.394;9.756;2024-03-25T10:17:42;5.13;;;1.50;;
3207;SDS011;1616;52.394;9.756;2024-03-25T10:20:18;2.57;;;1.30;;
3207;SDS011;1616;52.394;9.756;2024-03-25T10:22:44;3.13;;;1.10;;
3207;SDS011;1616;52.394;9.756;2024-03-25T10:25:19;2.70;;;1.10;;
3207;SDS011;1616;52.394;9.756;2024-03-25T10:27:52;3.60;;;1.40;;
3207;SDS011;1616;52.394;9.756;2024-03-25T10:30:21;6.57;;;1.20;;
3207;SDS011;1616;52.394;9.756;2024-03-25T10:33:03;11.33;;;1.40;;
3207;SDS011;1616;52.394;9.756;2024-03-25T10:35:39;3.57;;;1.17;;
3207;SDS011;1616;52.394;9.756;2024-03-25T10:38:06;3.63;;;1.20;;
3207;SDS011;1616;52.394;9.756;2024-03-25T10:40:38;4.83;;;1.20;;
3207;SDS011;1616;52.394;9.756;2024-03-25T10:43:08;4.27;;;1.10;;
3207;SDS011;1616;52.394;9.756;2024-03-25T10:45:40;2.93;;;1.17;;
3207;SDS011;1616;52.394;9.756;2024-03-25T10:48:19;6.90;;;1.20;;
3207;SDS011;1616;52.394;9.756;2024-03-25T10:50:49;5.00;;;1.27;;
3207;SDS011;1616;52.394;9.756;2024-03-25T10:53:17;4.40;;;1.17;;
3207;SDS011;1616;52.394;9.756;2024-03-25T10:55:46;3.47;;;1.20;;
3207;SDS011;1616;52.394;9.756;2024-03-25T10:58:15;8.63;;;1.53;;
3207;SDS011;1616;52.394;9.756;2024-03-25T11:00:42;5.30;;;1.83;;
3207;SDS011;1616;52.394;9.756;2024-03-25T11:03:09;4.20;;;1.03;;
3207;SDS011;1616;52.394;9.756;2024-03-25T11:05:35;2.50;;;1.43;;
3207;SDS011;1616;52.394;9.756;2024-03-25T11:08:11;6.93;;;1.37;;
3207;SDS011;1616;52.394;9.756;2024-03-25T11:10:44;3.57;;;1.00;;
3207;SDS011;1616;52.394;9.756;2024-03-25T11:13:18;3.30;;;1.30;;
3207;SDS011;1616;52.394;9.756;2024-03-25T11:15:45;2.60;;;1.00;;
3207;SDS011;1616;52.394;9.756;2024-03-25T11:18:13;5.47;;;1.10;;
3207;SDS011;1616;52.394;9.756;2024-03-25T11:20:40;3.00;;;1.10;;
3207;SDS011;1616;52.394;9.756;2024-03-25T11:23:09;4.90;;;1.50;;
3207;SDS011;1616;52.394;9.756;2024-03-25T11:25:39;5.53;;;1.20;;
3207;SDS011;1616;52.394;9.756;2024-03-25T11:28:06;3.23;;;2.37;;
3207;SDS011;1616;52.394;9.756;2024-03-25T11:30:33;10.57;;;1.70;;
3207;SDS011;1616;52.394;9.756;2024-03-25T11:33:01;7.23;;;1.10;;
3207;SDS011;1616;52.394;9.756;2024-03-25T11:35:27;3.47;;;1.17;;
3207;SDS011;1616;52.394;9.756;2024-03-25T11:37:53;5.80;;;1.07;;
3207;SDS011;1616;52.394;9.756;2024-03-25T11:40:19;4.00;;;1.07;;
3207;SDS011;1616;52.394;9.756;2024-03-25T11:42:45;3.63;;;1.30;;
3207;SDS011;1616;52.394;9.756;2024-03-25T11:45:18;2.50;;;1.40;;
3207;SDS011;1616;52.394;9.756;2024-03-25T11:47:47;2.63;;;1.43;;
3207;SDS011;1616;52.394;9.756;2024-03-25T11:50:15;4.07;;;1.63;;
3207;SDS011;1616;52.394;9.756;2024-03-25T11:52:41;5.17;;;1.30;;
3207;SDS011;1616;52.394;9.756;2024-03-25T11:55:08;8.50;;;1.33;;
3207;SDS011;1616;52.394;9.756;2024-03-25T11:57:36;3.90;;;1.23;;
3207;SDS011;1616;52.394;9.756;2024-03-25T12:00:02;5.93;;;1.33;;
3207;SDS011;1616;52.394;9.756;2024-03-25T12:02:32;4.03;;;1.30;;
3207;SDS011;1616;52.394;9.756;2024-03-25T12:04:57;3.53;;;1.80;;
3207;SDS011;1616;52.394;9.756;2024-03-25T12:07:23;1.93;;;0.90;;
3207;SDS011;1616;52.394;9.756;2024-03-25T12:09:49;1.70;;;0.90;;
3207;SDS011;1616;52.394;9.756;2024-03-25T12:12:33;2.10;;;0.93;;
3207;SDS011;1616;52.394;9.756;2024-03-25T12:15:04;7.33;;;1.10;;
3207;SDS011;1616;52.394;9.756;2024-03-25T12:17:31;3.10;;;1.10;;
3207;SDS011;1616;52.394;9.756;2024-03-25T12:20:01;3.10;;;1.10;;
3207;SDS011;1616;52.394;9.756;2024-03-25T12:22:33;5.53;;;1.10;;
3207;SDS011;1616;52.394;9.756;2024-03-25T12:25:00;11.37;;;1.10;;
3207;SDS011;1616;52.394;9.756;2024-03-25T12:27:29;2.20;;;0.90;;
3207;SDS011;1616;52.394;9.756;2024-03-25T12:29:59;3.10;;;1.00;;
3207;SDS011;1616;52.394;9.756;2024-03-25T12:32:40;5.37;;;0.93;;
3207;SDS011;1616;52.394;9.756;2024-03-25T12:37:34;6.73;;;1.10;;
3207;SDS011;1616;52.394;9.756;2024-03-25T12:40:01;3.77;;;1.07;;
3207;SDS011;1616;52.394;9.756;2024-03-25T12:42:27;1.50;;;0.90;;
3207;SDS011;1616;52.394;9.756;2024-03-25T12:44:53;1.30;;;0.80;;
3207;SDS011;1616;52.394;9.756;2024-03-25T12:47:19;3.30;;;0.93;;
3207;SDS011;1616;52.394;9.756;2024-03-25T12:49:45;4.97;;;1.03;;
3207;SDS011;1616;52.394;9.756;2024-03-25T12:52:11;1.50;;;1.00;;
3207;SDS011;1616;52.394;9.756;2024-03-25T12:54:37;2.47;;;0.90;;
3207;SDS011;1616;52.394;9.756;2024-03-25T12:57:03;2.50;;;1.07;;
3207;SDS011;1616;52.394;9.756;2024-03-25T12:59:28;2.70;;;0.93;;
3207;SDS011;1616;52.394;9.756;2024-03-25T13:01:54;2.90;;;1.10;;
3207;SDS011;1616;52.394;9.756;2024-03-25T13:04:21;4.57;;;0.90;;
3207;SDS011;1616;52.394;9.756;2024-03-25T13:06:46;1.67;;;0.70;;
3207;SDS011;1616;52.394;9.756;2024-03-25T13:09:12;1.87;;;0.90;;
3207;SDS011;1616;52.394;9.756;2024-03-25T13:11:38;2.67;;;1.00;;
3207;SDS011;1616;52.394;9.756;2024-03-25T13:14:04;3.60;;;0.90;;
3207;SDS011;1616;52.394;9.756;2024-03-25T13:16:32;1.80;;;1.07;;
3207;SDS011;1616;52.394;9.756;2024-03-25T13:18:59;1.63;;;1.00;;
3207;SDS011;1616;52.394;9.756;2024-03-25T13:21:26;2.00;;;0.83;;
3207;SDS011;1616;52.394;9.756;2024-03-25T13:23:51;2.00;;;0.87;;
3207;SDS011;1616;52.394;9.756;2024-03-25T13:26:17;2.20;;;1.00;;
3207;SDS011;1616;52.394;9.756;2024-03-25T13:28:43;3.77;;;0.93;;
3207;SDS011;1616;52.394;9.756;2024-03-25T13:31:09;2.00;;;1.00;;
3207;SDS011;1616;52.394;9.756;2024-03-25T13:33:34;2.50;;;0.90;;
3207;SDS011;1616;52.394;9.756;2024-03-25T13:36:01;2.30;;;0.80;;
3207;SDS011;1616;52.394;9.756;2024-03-25T13:38:28;4.30;;;1.20;;
3207;SDS011;1616;52.394;9.756;2024-03-25T13:40:54;2.00;;;0.90;;
3207;SDS011;1616;52.394;9.756;2024-03-25T13:43:19;2.90;;;1.00;;
3207;SDS011;1616;52.394;9.756;2024-03-25T13:45:46;1.97;;;1.00;;
3207;SDS011;1616;52.394;9.756;2024-03-25T13:48:15;3.70;;;0.90;;
3207;SDS011;1616;52.394;9.756;2024-03-25T13:50:42;2.10;;;1.00;;
3207;SDS011;1616;52.394;9.756;2024-03-25T13:53:08;3.83;;;1.00;;
3207;SDS011;1616;52.394;9.756;2024-03-25T13:55:34;1.20;;;0.70;;
3207;SDS011;1616;52.394;9.756;2024-03-25T13:58:00;4.57;;;1.30;;
3207;SDS011;1616;52.394;9.756;2024-03-25T14:00:27;10.07;;;1.83;;
3207;SDS011;1616;52.394;9.756;2024-03-25T14:02:56;3.20;;;1.30;;
3207;SDS011;1616;52.394;9.756;2024-03-25T14:05:23;2.60;;;0.90;;
3207;SDS011;1616;52.394;9.756;2024-03-25T14:07:49;2.10;;;0.80;;
3207;SDS011;1616;52.394;9.756;2024-03-25T14:10:15;5.43;;;1.10;;
3207;SDS011;1616;52.394;9.756;2024-03-25T14:12:41;2.23;;;0.90;;
3207;SDS011;1616;52.394;9.756;2024-03-25T14:15:07;2.17;;;0.80;;
3207;SDS011;1616;52.394;9.756;2024-03-25T14:17:33;4.90;;;1.00;;
3207;SDS011;1616;52.394;9.756;2024-03-25T14:19:59;1.40;;;0.80;;
3207;SDS011;1616;52.394;9.756;2024-03-25T14:22:25;5.27;;;1.00;;
3207;SDS011;1616;52.394;9.756;2024-03-25T14:24:50;5.27;;;0.90;;
3207;SDS011;1616;52.394;9.756;2024-03-25T14:27:21;3.40;;;1.00;;
3207;SDS011;1616;52.394;9.756;2024-03-25T14:29:47;4.13;;;1.13;;
3207;SDS011;1616;52.394;9.756;2024-03-25T14:32:13;3.33;;;1.00;;
3207;SDS011;1616;52.394;9.756;2024-03-25T14:34:38;3.23;;;1.00;;
3207;SDS011;1616;52.394;9.756;2024-03-25T14:37:04;1.70;;;1.00;;
3207;SDS011;1616;52.394;9.756;2024-03-25T14:39:30;1.80;;;0.83;;
3207;SDS011;1616;52.394;9.756;2024-03-25T14:41:56;2.50;;;0.83;;
3207;SDS011;1616;52.394;9.756;2024-03-25T14:44:22;2.50;;;0.70;;
3207;SDS011;1616;52.394;9.756;2024-03-25T14:46:49;3.27;;;1.13;;
3207;SDS011;1616;52.394;9.756;2024-03-25T14:49:14;2.37;;;1.00;;
3207;SDS011;1616;52.394;9.756;2024-03-25T14:51:40;1.33;;;0.70;;
3207;SDS011;1616;52.394;9.756;2024-03-25T14:54:06;1.87;;;0.80;;
3207;SDS011;1616;52.394;9.756;2024-03-25T14:56:32;3.73;;;0.80;;
3207;SDS011;1616;52.394;9.756;2024-03-25T14:58:58;5.60;;;0.80;;
3207;SDS011;1616;52.394;9.756;2024-03-25T15:01:24;1.47;;;0.70;;
3207;SDS011;1616;52.394;9.756;2024-03-25T15:03:49;6.37;;;1.20;;
3207;SDS011;1616;52.394;9.756;2024-03-25T15:06:15;2.90;;;1.10;;
3207;SDS011;1616;52.394;9.756;2024-03-25T15:08:42;3.67;;;0.80;;
3207;SDS011;1616;52.394;9.756;2024-03-25T15:11:09;1.63;;;0.87;;
3207;SDS011;1616;52.394;9.756;2024-03-25T15:13:36;4.80;;;0.90;;
3207;SDS011;1616;52.394;9.756;2024-03-25T15:16:04;6.00;;;0.97;;
3207;SDS011;1616;52.394;9.756;2024-03-25T15:18:30;2.20;;;0.93;;